sensor_id;sensor_type;location;lat;lon;timestamp;P1;durP1;ratioP1;P2;durP2;ratioP2
5279;SDS011;2663;53.588;10.010;2024-01-30T00:02:16;10.40;;;7.13;;
5279;SDS011;2663;53.588;10.010;2024-01-30T00:04:43;12.57;;;7.30;;
5279;SDS011;2663;53.588;10.010;2024-01-30T00:07:10;13.40;;;7.47;;
5279;SDS011;2663;53.588;10.010;2024-01-30T00:09:37;9.63;;;6.77;;
5279;SDS011;2663;53.588;10.010;2024-01-30T00:12:06;11.30;;;7.33;;
5279;SDS011;2663;53.588;10.010;2024-01-30T00:14:32;18.00;;;7.27;;
5279;SDS011;2663;53.588;10.010;2024-01-30T00:16:59;8.70;;;6.63;;
5279;SDS011;2663;53.588;10.010;2024-01-30T00:19:26;9.90;;;6.53;;
5279;SDS011;2663;53.588;10.010;2024-01-30T00:21:53;10.40;;;7.30;;
5279;SDS011;2663;53.588;10.010;2024-01-30T00:24:19;12.43;;;6.90;;
5279;SDS011;2663;53.588;10.010;2024-01-30T00:26:46;11.93;;;8.23;;
5279;SDS011;2663;53.588;10.010;2024-01-30T00:29:13;10.67;;;7.23;;
5279;SDS011;2663;53.588;10.010;2024-01-30T00:31:45;14.47;;;7.63;;
5279;SDS011;2663;53.588;10.010;2024-01-30T00:34:12;11.30;;;7.00;;
5279;SDS011;2663;53.588;10.010;2024-01-30T00:36:39;11.50;;;7.23;;
5279;SDS011;2663;53.588;10.010;2024-01-30T00:39:06;9.00;;;7.00;;
5279;SDS011;2663;53.588;10.010;2024-01-30T00:41:35;12.03;;;7.27;;
5279;SDS011;2663;53.588;10.010;2024-01-30T00:44:02;8.13;;;5.90;;
5279;SDS011;2663;53.588;10.010;2024-01-30T00:46:28;14.70;;;6.83;;
5279;SDS011;2663;53.588;10.010;2024-01-30T00:48:55;9.70;;;6.50;;
5279;SDS011;2663;53.588;10.010;2024-01-30T00:51:22;11.53;;;6.97;;
5279;SDS011;2663;53.588;10.010;2024-01-30T00:53:49;17.40;;;7.20;;
5279;SDS011;2663;53.588;10.010;2024-01-30T00:56:15;16.37;;;7.30;;
5279;SDS011;2663;53.588;10.010;2024-01-30T00:58:44;8.73;;;6.50;;
5279;SDS011;2663;53.588;10.010;2024-01-30T01:01:11;13.63;;;7.60;;
5279;SDS011;2663;53.588;10.010;2024-01-30T01:03:38;12.47;;;6.83;;
5279;SDS011;2663;53.588;10.010;2024-01-30T01:06:07;14.47;;;7.63;;
5279;SDS011;2663;53.588;10.010;2024-01-30T01:08:34;12.43;;;6.40;;
5279;SDS011;2663;53.588;10.010;2024-01-30T01:11:00;8.77;;;6.73;;
5279;SDS011;2663;53.588;10.010;2024-01-30T01:13:27;10.77;;;7.07;;
5279;SDS011;2663;53.588;10.010;2024-01-30T01:15:54;10.03;;;6.10;;
5279;SDS011;2663;53.588;10.010;2024-01-30T01:18:21;11.10;;;6.67;;
5279;SDS011;2663;53.588;10.010;2024-01-30T01:20:47;18.03;;;7.17;;
5279;SDS011;2663;53.588;10.010;2024-01-30T01:23:15;16.57;;;6.20;;
5279;SDS011;2663;53.588;10.010;2024-01-30T01:25:42;10.00;;;6.67;;
5279;SDS011;2663;53.588;10.010;2024-01-30T01:28:08;9.73;;;6.77;;
5279;SDS011;2663;53.588;10.010;2024-01-30T01:30:35;11.13;;;6.87;;
5279;SDS011;2663;53.588;10.010;2024-01-30T01:33:02;13.90;;;7.37;;
5279;SDS011;2663;53.588;10.010;2024-01-30T01:35:29;10.07;;;7.00;;
5279;SDS011;2663;53.588;10.010;2024-01-30T01:37:56;10.07;;;5.73;;
5279;SDS011;2663;53.588;10.010;2024-01-30T01:40:24;12.83;;;6.90;;
5279;SDS011;2663;53.588;10.010;2024-01-30T01:42:51;15.20;;;6.80;;
5279;SDS011;2663;53.588;10.010;2024-01-30T01:45:19;11.43;;;6.63;;
5279;SDS011;2663;53.588;10.010;2024-01-30T01:47:47;9.97;;;6.80;;
5279;SDS011;2663;53.588;10.010;2024-01-30T01:50:16;9.30;;;5.93;;
5279;SDS011;2663;53.588;10.010;2024-01-30T01:52:47;10.70;;;6.40;;
5279;SDS011;2663;53.588;10.010;2024-01-30T01:55:15;10.17;;;6.17;;
5279;SDS011;2663;53.588;10.010;2024-01-30T01:57:44;12.97;;;7.07;;
5279;SDS011;2663;53.588;10.010;2024-01-30T02:00:11;12.87;;;6.77;;
5279;SDS011;2663;53.588;10.010;2024-01-30T02:02:39;13.63;;;6.73;;
5279;SDS011;2663;53.588;10.010;2024-01-30T02:05:07;14.73;;;6.43;;
5279;SDS011;2663;53.588;10.010;2024-01-30T02:07:35;10.17;;;6.77;;
5279;SDS011;2663;53.588;10.010;2024-01-30T02:10:02;11.80;;;6.40;;
5279;SDS011;2663;53.588;10.010;2024-01-30T02:12:30;9.37;;;6.70;;
5279;SDS011;2663;53.588;10.010;2024-01-30T02:14:57;9.57;;;6.20;;
5279;SDS011;2663;53.588;10.010;2024-01-30T02:17:24;10.37;;;5.97;;
5279;SDS011;2663;53.588;10.010;2024-01-30T02:19:51;10.07;;;6.77;;
5279;SDS011;2663;53.588;10.010;2024-01-30T02:22:18;10.30;;;6.20;;
5279;SDS011;2663;53.588;10.010;2024-01-30T02:24:46;6.53;;;5.83;;
5279;SDS011;2663;53.588;10.010;2024-01-30T02:27:13;13.97;;;6.30;;
5279;SDS011;2663;53.588;10.010;2024-01-30T02:29:39;13.60;;;6.70;;
5279;SDS011;2663;53.588;10.010;2024-01-30T02:32:06;10.17;;;6.53;;
5279;SDS011;2663;53.588;10.010;2024-01-30T02:34:33;10.17;;;6.27;;
5279;SDS011;2663;53.588;10.010;2024-01-30T02:37:00;18.37;;;6.90;;
5279;SDS011;2663;53.588;10.010;2024-01-30T02:39:28;11.03;;;7.10;;
5279;SDS011;2663;53.588;10.010;2024-01-30T02:41:55;18.57;;;6.30;;
5279;SDS011;2663;53.588;10.010;2024-01-30T02:44:23;10.93;;;6.70;;
5279;SDS011;2663;53.588;10.010;2024-01-30T02:46:49;14.47;;;6.63;;
5279;SDS011;2663;53.588;10.010;2024-01-30T02:49:16;10.47;;;7.27;;
5279;SDS011;2663;53.588;10.010;2024-01-30T02:51:43;8.63;;;6.47;;
5279;SDS011;2663;53.588;10.010;2024-01-30T02:54:10;11.57;;;6.30;;
5279;SDS011;2663;53.588;10.010;2024-01-30T02:56:37;18.63;;;6.93;;
5279;SDS011;2663;53.588;10.010;2024-01-30T02:59:03;11.07;;;6.40;;
5279;SDS011;2663;53.588;10.010;2024-01-30T03:01:30;6.40;;;5.20;;
5279;SDS011;2663;53.588;10.010;2024-01-30T03:03:58;12.30;;;6.17;;
5279;SDS011;2663;53.588;10.010;2024-01-30T03:06:25;12.73;;;6.10;;
5279;SDS011;2663;53.588;10.010;2024-01-30T03:08:51;17.83;;;8.20;;
5279;SDS011;2663;53.588;10.010;2024-01-30T03:11:18;10.07;;;6.27;;
5279;SDS011;2663;53.588;10.010;2024-01-30T03:13:45;14.07;;;7.27;;
5279;SDS011;2663;53.588;10.010;2024-01-30T03:16:11;11.70;;;6.40;;
5279;SDS011;2663;53.588;10.010;2024-01-30T03:18:38;10.57;;;6.90;;
5279;SDS011;2663;53.588;10.010;2024-01-30T03:21:05;9.20;;;6.23;;
5279;SDS011;2663;53.588;10.010;2024-01-30T03:23:32;9.87;;;6.73;;
5279;SDS011;2663;53.588;10.010;2024-01-30T03:25:59;13.43;;;6.10;;
5279;SDS011;2663;53.588;10.010;2024-01-30T03:28:25;18.20;;;6.03;;
5279;SDS011;2663;53.588;10.010;2024-01-30T03:30:52;9.77;;;6.33;;
5279;SDS011;2663;53.588;10.010;2024-01-30T03:33:19;11.70;;;7.00;;
5279;SDS011;2663;53.588;10.010;2024-01-30T03:35:46;18.50;;;7.03;;
5279;SDS011;2663;53.588;10.010;2024-01-30T03:38:12;10.70;;;6.37;;
5279;SDS011;2663;53.588;10.010;2024-01-30T03:40:39;8.50;;;6.30;;
5279;SDS011;2663;53.588;10.010;2024-01-30T03:43:06;12.33;;;7.33;;
5279;SDS011;2663;53.588;10.010;2024-01-30T03:45:32;11.33;;;7.73;;
5279;SDS011;2663;53.588;10.010;2024-01-30T03:47:59;10.47;;;7.33;;
5279;SDS011;2663;53.588;10.010;2024-01-30T03:50:26;11.03;;;7.03;;
5279;SDS011;2663;53.588;10.010;2024-01-30T03:52:54;12.13;;;6.60;;
5279;SDS011;2663;53.588;10.010;2024-01-30T03:55:21;13.30;;;6.20;;
5279;SDS011;2663;53.588;10.010;2024-01-30T03:57:47;12.90;;;6.60;;
5279;SDS011;2663;53.588;10.010;2024-01-30T04:00:14;11.23;;;6.90;;
5279;SDS011;2663;53.588;10.010;2024-01-30T04:02:41;11.43;;;7.33;;
5279;SDS011;2663;53.588;10.010;2024-01-30T04:05:08;15.47;;;7.80;;
5279;SDS011;2663;53.588;10.010;2024-01-30T04:07:35;14.23;;;7.20;;
5279;SDS011;2663;53.588;10.010;2024-01-30T04:10:02;12.97;;;8.00;;
5279;SDS011;2663;53.588;10.010;2024-01-30T04:12:31;12.20;;;7.77;;
5279;SDS011;2663;53.588;10.010;2024-01-30T04:14:58;10.17;;;7.37;;
5279;SDS011;2663;53.588;10.010;2024-01-30T04:17:25;9.70;;;6.20;;
5279;SDS011;2663;53.588;10.010;2024-01-30T04:19:51;10.57;;;7.00;;
5279;SDS011;2663;53.588;10.010;2024-01-30T04:22:19;8.43;;;6.57;;
5279;SDS011;2663;53.588;10.010;2024-01-30T04:24:45;9.50;;;6.93;;
5279;SDS011;2663;53.588;10.010;2024-01-30T04:27:12;11.20;;;7.03;;
5279;SDS011;2663;53.588;10.010;2024-01-30T04:29:39;21.63;;;7.60;;
5279;SDS011;2663;53.588;10.010;2024-01-30T04:32:06;16.63;;;7.67;;
5279;SDS011;2663;53.588;10.010;2024-01-30T04:34:32;10.83;;;6.70;;
5279;SDS011;2663;53.588;10.010;2024-01-30T04:36:59;13.30;;;8.07;;
5279;SDS011;2663;53.588;10.010;2024-01-30T04:39:26;14.03;;;7.60;;
5279;SDS011;2663;53.588;10.010;2024-01-30T04:41:53;16.53;;;8.23;;
5279;SDS011;2663;53.588;10.010;2024-01-30T04:44:20;11.70;;;8.00;;
5279;SDS011;2663;53.588;10.010;2024-01-30T04:46:47;9.40;;;7.30;;
5279;SDS011;2663;53.588;10.010;2024-01-30T04:49:14;12.27;;;8.50;;
5279;SDS011;2663;53.588;10.010;2024-01-30T04:51:40;12.33;;;6.53;;
5279;SDS011;2663;53.588;10.010;2024-01-30T04:54:07;13.10;;;7.20;;
5279;SDS011;2663;53.588;10.010;2024-01-30T04:56:34;15.83;;;8.27;;
5279;SDS011;2663;53.588;10.010;2024-01-30T04:59:02;11.87;;;6.83;;
5279;SDS011;2663;53.588;10.010;2024-01-30T05:01:29;14.00;;;8.50;;
5279;SDS011;2663;53.588;10.010;2024-01-30T05:03:56;14.63;;;8.70;;
5279;SDS011;2663;53.588;10.010;2024-01-30T05:06:26;15.27;;;8.50;;
5279;SDS011;2663;53.588;10.010;2024-01-30T05:08:53;11.90;;;8.60;;
5279;SDS011;2663;53.588;10.010;2024-01-30T05:11:20;12.30;;;8.23;;
5279;SDS011;2663;53.588;10.010;2024-01-30T05:13:47;13.27;;;7.00;;
5279;SDS011;2663;53.588;10.010;2024-01-30T05:16:14;11.40;;;8.23;;
5279;SDS011;2663;53.588;10.010;2024-01-30T05:18:40;13.13;;;8.70;;
5279;SDS011;2663;53.588;10.010;2024-01-30T05:21:07;11.90;;;7.87;;
5279;SDS011;2663;53.588;10.010;2024-01-30T05:23:34;12.43;;;8.40;;
5279;SDS011;2663;53.588;10.010;2024-01-30T05:26:01;25.97;;;8.60;;
5279;SDS011;2663;53.588;10.010;2024-01-30T05:28:29;14.47;;;8.97;;
5279;SDS011;2663;53.588;10.010;2024-01-30T05:30:56;16.30;;;8.90;;
5279;SDS011;2663;53.588;10.010;2024-01-30T05:33:23;15.60;;;8.60;;
5279;SDS011;2663;53.588;10.010;2024-01-30T05:35:50;16.30;;;8.73;;
5279;SDS011;2663;53.588;10.010;2024-01-30T05:38:20;16.00;;;9.10;;
5279;SDS011;2663;53.588;10.010;2024-01-30T05:40:47;12.83;;;7.97;;
5279;SDS011;2663;53.588;10.010;2024-01-30T05:43:14;12.40;;;8.10;;
5279;SDS011;2663;53.588;10.010;2024-01-30T05:45:41;13.90;;;8.50;;
5279;SDS011;2663;53.588;10.010;2024-01-30T05:48:08;15.77;;;8.50;;
5279;SDS011;2663;53.588;10.010;2024-01-30T05:50:34;17.80;;;10.93;;
5279;SDS011;2663;53.588;10.010;2024-01-30T05:53:01;38.20;;;10.43;;
5279;SDS011;2663;53.588;10.010;2024-01-30T05:55:28;13.97;;;9.70;;
5279;SDS011;2663;53.588;10.010;2024-01-30T05:57:55;18.10;;;10.00;;
5279;SDS011;2663;53.588;10.010;2024-01-30T06:00:22;13.43;;;9.23;;
5279;SDS011;2663;53.588;10.010;2024-01-30T06:02:49;14.87;;;10.40;;
5279;SDS011;2663;53.588;10.010;2024-01-30T06:05:15;21.50;;;9.53;;
5279;SDS011;2663;53.588;10.010;2024-01-30T06:07:42;16.00;;;9.77;;
5279;SDS011;2663;53.588;10.010;2024-01-30T06:10:09;19.00;;;9.07;;
5279;SDS011;2663;53.588;10.010;2024-01-30T06:12:36;17.80;;;10.23;;
5279;SDS011;2663;53.588;10.010;2024-01-30T06:15:04;21.93;;;10.10;;
5279;SDS011;2663;53.588;10.010;2024-01-30T06:17:31;19.23;;;9.17;;
5279;SDS011;2663;53.588;10.010;2024-01-30T06:19:57;19.00;;;10.03;;
5279;SDS011;2663;53.588;10.010;2024-01-30T06:22:24;13.37;;;9.30;;
5279;SDS011;2663;53.588;10.010;2024-01-30T06:24:51;15.90;;;9.37;;
5279;SDS011;2663;53.588;10.010;2024-01-30T06:27:18;19.80;;;9.73;;
5279;SDS011;2663;53.588;10.010;2024-01-30T06:29:45;13.17;;;9.10;;
5279;SDS011;2663;53.588;10.010;2024-01-30T06:32:12;15.30;;;9.23;;
5279;SDS011;2663;53.588;10.010;2024-01-30T06:34:40;15.97;;;9.30;;
5279;SDS011;2663;53.588;10.010;2024-01-30T06:37:07;17.93;;;9.10;;
5279;SDS011;2663;53.588;10.010;2024-01-30T06:39:34;17.50;;;9.23;;
5279;SDS011;2663;53.588;10.010;2024-01-30T06:42:01;19.30;;;10.20;;
5279;SDS011;2663;53.588;10.010;2024-01-30T06:44:28;13.80;;;9.37;;
5279;SDS011;2663;53.588;10.010;2024-01-30T06:46:58;17.00;;;9.33;;
5279;SDS011;2663;53.588;10.010;2024-01-30T06:49:25;15.43;;;9.40;;
5279;SDS011;2663;53.588;10.010;2024-01-30T06:51:52;15.80;;;9.03;;
5279;SDS011;2663;53.588;10.010;2024-01-30T06:54:19;13.73;;;9.13;;
5279;SDS011;2663;53.588;10.010;2024-01-30T06:56:45;15.93;;;10.00;;
5279;SDS011;2663;53.588;10.010;2024-01-30T06:59:12;19.00;;;9.40;;
5279;SDS011;2663;53.588;10.010;2024-01-30T07:01:39;24.40;;;8.87;;
5279;SDS011;2663;53.588;10.010;2024-01-30T07:04:06;20.23;;;9.73;;
5279;SDS011;2663;53.588;10.010;2024-01-30T07:06:33;17.13;;;9.57;;
5279;SDS011;2663;53.588;10.010;2024-01-30T07:08:59;24.53;;;9.23;;
5279;SDS011;2663;53.588;10.010;2024-01-30T07:11:26;19.10;;;9.20;;
5279;SDS011;2663;53.588;10.010;2024-01-30T07:13:54;13.27;;;8.73;;
5279;SDS011;2663;53.588;10.010;2024-01-30T07:16:21;16.50;;;10.00;;
5279;SDS011;2663;53.588;10.010;2024-01-30T07:18:49;15.63;;;10.37;;
5279;SDS011;2663;53.588;10.010;2024-01-30T07:21:16;16.80;;;10.33;;
5279;SDS011;2663;53.588;10.010;2024-01-30T07:23:43;15.67;;;10.03;;
5279;SDS011;2663;53.588;10.010;2024-01-30T07:26:10;16.83;;;9.53;;
5279;SDS011;2663;53.588;10.010;2024-01-30T07:28:37;21.63;;;9.50;;
5279;SDS011;2663;53.588;10.010;2024-01-30T07:31:04;16.90;;;9.60;;
5279;SDS011;2663;53.588;10.010;2024-01-30T07:33:32;17.80;;;10.77;;
5279;SDS011;2663;53.588;10.010;2024-01-30T07:35:59;16.53;;;10.33;;
5279;SDS011;2663;53.588;10.010;2024-01-30T07:38:26;19.43;;;10.97;;
5279;SDS011;2663;53.588;10.010;2024-01-30T07:40:53;17.50;;;10.20;;
5279;SDS011;2663;53.588;10.010;2024-01-30T07:43:19;29.63;;;10.70;;
5279;SDS011;2663;53.588;10.010;2024-01-30T07:45:46;39.17;;;11.53;;
5279;SDS011;2663;53.588;10.010;2024-01-30T07:48:13;17.13;;;10.57;;
5279;SDS011;2663;53.588;10.010;2024-01-30T07:50:40;19.97;;;11.77;;
5279;SDS011;2663;53.588;10.010;2024-01-30T07:53:07;17.07;;;10.43;;
5279;SDS011;2663;53.588;10.010;2024-01-30T07:55:34;26.30;;;11.10;;
5279;SDS011;2663;53.588;10.010;2024-01-30T07:58:01;22.60;;;9.83;;
5279;SDS011;2663;53.588;10.010;2024-01-30T08:00:28;18.00;;;10.97;;
5279;SDS011;2663;53.588;10.010;2024-01-30T08:02:55;18.70;;;10.60;;
5279;SDS011;2663;53.588;10.010;2024-01-30T08:05:23;19.20;;;10.53;;
5279;SDS011;2663;53.588;10.010;2024-01-30T08:07:50;23.03;;;10.93;;
5279;SDS011;2663;53.588;10.010;2024-01-30T08:10:17;16.30;;;10.90;;
5279;SDS011;2663;53.588;10.010;2024-01-30T08:12:45;22.20;;;12.40;;
5279;SDS011;2663;53.588;10.010;2024-01-30T08:15:12;22.67;;;11.87;;
5279;SDS011;2663;53.588;10.010;2024-01-30T08:17:41;22.50;;;11.50;;
5279;SDS011;2663;53.588;10.010;2024-01-30T08:20:08;17.87;;;10.83;;
5279;SDS011;2663;53.588;10.010;2024-01-30T08:22:40;18.80;;;10.63;;
5279;SDS011;2663;53.588;10.010;2024-01-30T08:25:07;33.40;;;12.20;;
5279;SDS011;2663;53.588;10.010;2024-01-30T08:27:34;15.53;;;9.87;;
5279;SDS011;2663;53.588;10.010;2024-01-30T08:30:02;19.50;;;11.90;;
5279;SDS011;2663;53.588;10.010;2024-01-30T08:32:29;25.73;;;11.93;;
5279;SDS011;2663;53.588;10.010;2024-01-30T08:34:56;31.40;;;12.57;;
5279;SDS011;2663;53.588;10.010;2024-01-30T08:37:23;20.60;;;10.87;;
5279;SDS011;2663;53.588;10.010;2024-01-30T08:39:50;15.70;;;10.90;;
5279;SDS011;2663;53.588;10.010;2024-01-30T08:42:17;16.93;;;10.70;;
5279;SDS011;2663;53.588;10.010;2024-01-30T08:44:49;21.53;;;10.90;;
5279;SDS011;2663;53.588;10.010;2024-01-30T08:47:17;21.73;;;10.87;;
5279;SDS011;2663;53.588;10.010;2024-01-30T08:49:45;20.80;;;11.00;;
5279;SDS011;2663;53.588;10.010;2024-01-30T08:52:11;18.50;;;11.10;;
5279;SDS011;2663;53.588;10.010;2024-01-30T08:54:38;14.77;;;10.70;;
5279;SDS011;2663;53.588;10.010;2024-01-30T08:57:05;15.70;;;11.33;;
5279;SDS011;2663;53.588;10.010;2024-01-30T08:59:32;20.00;;;10.93;;
5279;SDS011;2663;53.588;10.010;2024-01-30T09:02:00;22.97;;;10.90;;
5279;SDS011;2663;53.588;10.010;2024-01-30T09:04:37;24.27;;;11.90;;
5279;SDS011;2663;53.588;10.010;2024-01-30T09:07:05;22.57;;;12.33;;
5279;SDS011;2663;53.588;10.010;2024-01-30T09:09:35;22.03;;;11.27;;
5279;SDS011;2663;53.588;10.010;2024-01-30T09:12:03;17.17;;;12.03;;
5279;SDS011;2663;53.588;10.010;2024-01-30T09:14:34;20.07;;;12.63;;
5279;SDS011;2663;53.588;10.010;2024-01-30T09:17:05;24.37;;;11.80;;
5279;SDS011;2663;53.588;10.010;2024-01-30T09:19:32;18.03;;;11.70;;
5279;SDS011;2663;53.588;10.010;2024-01-30T09:21:59;18.20;;;12.47;;
5279;SDS011;2663;53.588;10.010;2024-01-30T09:24:26;25.87;;;12.83;;
5279;SDS011;2663;53.588;10.010;2024-01-30T09:26:53;20.30;;;11.30;;
5279;SDS011;2663;53.588;10.010;2024-01-30T09:29:20;20.43;;;11.27;;
5279;SDS011;2663;53.588;10.010;2024-01-30T09:31:48;23.03;;;12.30;;
5279;SDS011;2663;53.588;10.010;2024-01-30T09:34:14;22.63;;;10.60;;
5279;SDS011;2663;53.588;10.010;2024-01-30T09:36:41;23.73;;;12.77;;
5279;SDS011;2663;53.588;10.010;2024-01-30T09:39:08;19.00;;;12.40;;
5279;SDS011;2663;53.588;10.010;2024-01-30T09:41:39;15.40;;;11.60;;
5279;SDS011;2663;53.588;10.010;2024-01-30T09:44:15;17.83;;;12.37;;
5279;SDS011;2663;53.588;10.010;2024-01-30T09:46:43;23.37;;;12.37;;
5279;SDS011;2663;53.588;10.010;2024-01-30T09:49:13;22.53;;;12.70;;
5279;SDS011;2663;53.588;10.010;2024-01-30T09:51:42;21.47;;;12.17;;
5279;SDS011;2663;53.588;10.010;2024-01-30T09:54:11;19.50;;;12.23;;
5279;SDS011;2663;53.588;10.010;2024-01-30T09:56:41;22.07;;;11.40;;
5279;SDS011;2663;53.588;10.010;2024-01-30T09:59:08;23.03;;;13.20;;
5279;SDS011;2663;53.588;10.010;2024-01-30T10:01:34;20.93;;;11.80;;
5279;SDS011;2663;53.588;10.010;2024-01-30T10:04:03;18.00;;;12.20;;
5279;SDS011;2663;53.588;10.010;2024-01-30T10:06:30;17.77;;;11.97;;
5279;SDS011;2663;53.588;10.010;2024-01-30T10:08:57;21.83;;;11.90;;
5279;SDS011;2663;53.588;10.010;2024-01-30T10:11:24;20.00;;;12.57;;
5279;SDS011;2663;53.588;10.010;2024-01-30T10:13:51;29.43;;;12.67;;
5279;SDS011;2663;53.588;10.010;2024-01-30T10:16:18;27.77;;;11.57;;
5279;SDS011;2663;53.588;10.010;2024-01-30T10:18:45;29.20;;;12.37;;
5279;SDS011;2663;53.588;10.010;2024-01-30T10:21:12;23.33;;;12.67;;
5279;SDS011;2663;53.588;10.010;2024-01-30T10:23:39;23.93;;;12.50;;
5279;SDS011;2663;53.588;10.010;2024-01-30T10:26:07;23.30;;;12.77;;
5279;SDS011;2663;53.588;10.010;2024-01-30T10:28:34;21.37;;;12.80;;
5279;SDS011;2663;53.588;10.010;2024-01-30T10:31:01;17.30;;;11.73;;
5279;SDS011;2663;53.588;10.010;2024-01-30T10:33:32;27.93;;;13.07;;
5279;SDS011;2663;53.588;10.010;2024-01-30T10:36:05;21.13;;;11.70;;
5279;SDS011;2663;53.588;10.010;2024-01-30T10:38:32;32.50;;;11.93;;
5279;SDS011;2663;53.588;10.010;2024-01-30T10:41:00;20.67;;;12.00;;
5279;SDS011;2663;53.588;10.010;2024-01-30T10:43:31;17.47;;;12.73;;
5279;SDS011;2663;53.588;10.010;2024-01-30T10:46:06;19.80;;;12.30;;
5279;SDS011;2663;53.588;10.010;2024-01-30T10:48:46;28.17;;;15.20;;
5279;SDS011;2663;53.588;10.010;2024-01-30T10:51:19;26.70;;;13.30;;
5279;SDS011;2663;53.588;10.010;2024-01-30T10:53:48;19.77;;;11.67;;
5279;SDS011;2663;53.588;10.010;2024-01-30T10:56:16;24.73;;;13.23;;
5279;SDS011;2663;53.588;10.010;2024-01-30T10:58:44;19.30;;;12.47;;
5279;SDS011;2663;53.588;10.010;2024-01-30T11:01:11;27.20;;;12.00;;
5279;SDS011;2663;53.588;10.010;2024-01-30T11:03:39;27.33;;;12.73;;
5279;SDS011;2663;53.588;10.010;2024-01-30T11:06:10;18.07;;;12.00;;
5279;SDS011;2663;53.588;10.010;2024-01-30T11:08:37;35.20;;;12.07;;
5279;SDS011;2663;53.588;10.010;2024-01-30T11:11:04;24.27;;;13.00;;
5279;SDS011;2663;53.588;10.010;2024-01-30T11:13:36;20.90;;;12.57;;
5279;SDS011;2663;53.588;10.010;2024-01-30T11:16:03;23.07;;;13.30;;
5279;SDS011;2663;53.588;10.010;2024-01-30T11:18:32;18.33;;;12.70;;
5279;SDS011;2663;53.588;10.010;2024-01-30T11:20:59;18.10;;;11.43;;
5279;SDS011;2663;53.588;10.010;2024-01-30T11:23:28;23.77;;;12.17;;
5279;SDS011;2663;53.588;10.010;2024-01-30T11:25:55;20.47;;;11.37;;
5279;SDS011;2663;53.588;10.010;2024-01-30T11:28:24;21.10;;;12.60;;
5279;SDS011;2663;53.588;10.010;2024-01-30T11:30:50;30.33;;;13.70;;
5279;SDS011;2663;53.588;10.010;2024-01-30T11:33:27;23.27;;;12.00;;
5279;SDS011;2663;53.588;10.010;2024-01-30T11:36:00;24.60;;;12.17;;
5279;SDS011;2663;53.588;10.010;2024-01-30T11:38:27;26.07;;;12.80;;
5279;SDS011;2663;53.588;10.010;2024-01-30T11:40:55;19.77;;;10.90;;
5279;SDS011;2663;53.588;10.010;2024-01-30T11:43:23;47.07;;;13.40;;
5279;SDS011;2663;53.588;10.010;2024-01-30T11:45:50;26.00;;;13.20;;
5279;SDS011;2663;53.588;10.010;2024-01-30T11:48:17;41.47;;;12.70;;
5279;SDS011;2663;53.588;10.010;2024-01-30T11:50:45;20.97;;;11.90;;
5279;SDS011;2663;53.588;10.010;2024-01-30T11:53:12;18.33;;;11.57;;
5279;SDS011;2663;53.588;10.010;2024-01-30T11:55:39;20.90;;;12.10;;
5279;SDS011;2663;53.588;10.010;2024-01-30T11:58:06;21.53;;;11.43;;
5279;SDS011;2663;53.588;10.010;2024-01-30T12:00:33;23.70;;;12.13;;
5279;SDS011;2663;53.588;10.010;2024-01-30T12:03:01;19.07;;;11.27;;
5279;SDS011;2663;53.588;10.010;2024-01-30T12:05:29;33.50;;;12.87;;
5279;SDS011;2663;53.588;10.010;2024-01-30T12:07:56;22.70;;;11.97;;
5279;SDS011;2663;53.588;10.010;2024-01-30T12:10:28;27.43;;;13.27;;
5279;SDS011;2663;53.588;10.010;2024-01-30T12:12:55;19.93;;;12.00;;
5279;SDS011;2663;53.588;10.010;2024-01-30T12:15:23;17.27;;;10.73;;
5279;SDS011;2663;53.588;10.010;2024-01-30T12:17:51;19.73;;;11.97;;
5279;SDS011;2663;53.588;10.010;2024-01-30T12:20:18;32.70;;;12.00;;
5279;SDS011;2663;53.588;10.010;2024-01-30T12:22:47;21.80;;;11.77;;
5279;SDS011;2663;53.588;10.010;2024-01-30T12:25:15;27.37;;;14.27;;
5279;SDS011;2663;53.588;10.010;2024-01-30T12:27:43;30.23;;;12.10;;
5279;SDS011;2663;53.588;10.010;2024-01-30T12:30:14;38.93;;;18.43;;
5279;SDS011;2663;53.588;10.010;2024-01-30T12:32:41;39.93;;;19.40;;
5279;SDS011;2663;53.588;10.010;2024-01-30T12:35:16;30.40;;;14.20;;
5279;SDS011;2663;53.588;10.010;2024-01-30T12:37:45;23.20;;;11.37;;
5279;SDS011;2663;53.588;10.010;2024-01-30T12:40:13;17.23;;;11.20;;
5279;SDS011;2663;53.588;10.010;2024-01-30T12:42:41;23.60;;;10.47;;
5279;SDS011;2663;53.588;10.010;2024-01-30T12:45:09;20.07;;;10.80;;
5279;SDS011;2663;53.588;10.010;2024-01-30T12:47:36;20.00;;;10.43;;
5279;SDS011;2663;53.588;10.010;2024-01-30T12:50:03;17.90;;;9.90;;
5279;SDS011;2663;53.588;10.010;2024-01-30T12:52:30;24.47;;;10.20;;
5279;SDS011;2663;53.588;10.010;2024-01-30T12:54:57;19.13;;;10.50;;
5279;SDS011;2663;53.588;10.010;2024-01-30T12:57:24;18.77;;;10.73;;
5279;SDS011;2663;53.588;10.010;2024-01-30T12:59:51;20.53;;;11.07;;
5279;SDS011;2663;53.588;10.010;2024-01-30T13:02:18;18.60;;;10.83;;
5279;SDS011;2663;53.588;10.010;2024-01-30T13:04:45;16.30;;;9.60;;
5279;SDS011;2663;53.588;10.010;2024-01-30T13:07:15;15.67;;;9.57;;
5279;SDS011;2663;53.588;10.010;2024-01-30T13:09:42;16.00;;;9.80;;
5279;SDS011;2663;53.588;10.010;2024-01-30T13:12:09;24.70;;;10.60;;
5279;SDS011;2663;53.588;10.010;2024-01-30T13:14:36;14.77;;;9.03;;
5279;SDS011;2663;53.588;10.010;2024-01-30T13:17:02;13.47;;;9.30;;
5279;SDS011;2663;53.588;10.010;2024-01-30T13:19:29;19.47;;;10.10;;
5279;SDS011;2663;53.588;10.010;2024-01-30T13:21:57;19.00;;;10.40;;
5279;SDS011;2663;53.588;10.010;2024-01-30T13:24:23;20.87;;;10.57;;
5279;SDS011;2663;53.588;10.010;2024-01-30T13:26:50;13.57;;;8.70;;
5279;SDS011;2663;53.588;10.010;2024-01-30T13:29:18;25.00;;;9.90;;
5279;SDS011;2663;53.588;10.010;2024-01-30T13:31:45;15.20;;;8.87;;
5279;SDS011;2663;53.588;10.010;2024-01-30T13:34:13;26.50;;;9.93;;
5279;SDS011;2663;53.588;10.010;2024-01-30T13:36:40;19.93;;;9.57;;
5279;SDS011;2663;53.588;10.010;2024-01-30T13:39:08;14.83;;;8.40;;
5279;SDS011;2663;53.588;10.010;2024-01-30T13:41:38;23.53;;;8.70;;
5279;SDS011;2663;53.588;10.010;2024-01-30T13:44:05;16.87;;;9.40;;
5279;SDS011;2663;53.588;10.010;2024-01-30T13:46:31;19.60;;;9.23;;
5279;SDS011;2663;53.588;10.010;2024-01-30T13:48:58;18.27;;;8.53;;
5279;SDS011;2663;53.588;10.010;2024-01-30T13:51:26;19.83;;;10.27;;
5279;SDS011;2663;53.588;10.010;2024-01-30T13:53:53;19.60;;;9.27;;
5279;SDS011;2663;53.588;10.010;2024-01-30T13:56:20;19.60;;;10.27;;
5279;SDS011;2663;53.588;10.010;2024-01-30T13:58:48;28.93;;;10.30;;
5279;SDS011;2663;53.588;10.010;2024-01-30T14:01:15;17.60;;;10.23;;
5279;SDS011;2663;53.588;10.010;2024-01-30T14:03:43;19.43;;;10.47;;
5279;SDS011;2663;53.588;10.010;2024-01-30T14:06:10;19.83;;;10.87;;
5279;SDS011;2663;53.588;10.010;2024-01-30T14:08:38;16.17;;;9.57;;
5279;SDS011;2663;53.588;10.010;2024-01-30T14:11:05;17.97;;;9.23;;
5279;SDS011;2663;53.588;10.010;2024-01-30T14:13:31;18.40;;;9.53;;
5279;SDS011;2663;53.588;10.010;2024-01-30T14:15:59;15.03;;;9.50;;
5279;SDS011;2663;53.588;10.010;2024-01-30T14:18:26;14.97;;;9.90;;
5279;SDS011;2663;53.588;10.010;2024-01-30T14:20:53;19.83;;;10.73;;
5279;SDS011;2663;53.588;10.010;2024-01-30T14:23:20;14.80;;;8.93;;
5279;SDS011;2663;53.588;10.010;2024-01-30T14:25:47;16.87;;;9.30;;
5279;SDS011;2663;53.588;10.010;2024-01-30T14:28:15;18.63;;;10.30;;
5279;SDS011;2663;53.588;10.010;2024-01-30T14:30:42;17.40;;;9.80;;
5279;SDS011;2663;53.588;10.010;2024-01-30T14:33:08;22.60;;;10.70;;
5279;SDS011;2663;53.588;10.010;2024-01-30T14:35:35;15.03;;;9.90;;
5279;SDS011;2663;53.588;10.010;2024-01-30T14:38:02;18.57;;;10.10;;
5279;SDS011;2663;53.588;10.010;2024-01-30T14:40:31;17.30;;;9.23;;
5279;SDS011;2663;53.588;10.010;2024-01-30T14:42:58;16.10;;;10.00;;
5279;SDS011;2663;53.588;10.010;2024-01-30T14:45:25;14.77;;;9.70;;